sensor_id;sensor_type;location;lat;lon;timestamp;P1;durP1;ratioP1;P2;durP2;ratioP2
79135;SDS011;68533;51.090;17.216;2024-01-27T00:02:36;7.10;;;1.38;;
79135;SDS011;68533;51.090;17.216;2024-01-27T00:06:05;2.17;;;0.80;;
79135;SDS011;68533;51.090;17.216;2024-01-27T00:09:31;11.15;;;1.25;;
79135;SDS011;68533;51.090;17.216;2024-01-27T00:12:56;3.15;;;0.75;;
79135;SDS011;68533;51.090;17.216;2024-01-27T00:16:22;2.67;;;0.80;;
79135;SDS011;68533;51.090;17.216;2024-01-27T00:19:51;18.23;;;1.70;;
79135;SDS011;68533;51.090;17.216;2024-01-27T00:23:18;1.52;;;0.75;;
79135;SDS011;68533;51.090;17.216;2024-01-27T00:26:45;2.55;;;0.85;;
79135;SDS011;68533;51.090;17.216;2024-01-27T00:30:10;5.97;;;0.80;;
79135;SDS011;68533;51.090;17.216;2024-01-27T00:33:35;4.78;;;0.93;;
79135;SDS011;68533;51.090;17.216;2024-01-27T00:36:59;3.10;;;0.50;;
79135;SDS011;68533;51.090;17.216;2024-01-27T00:40:32;6.38;;;0.50;;
79135;SDS011;68533;51.090;17.216;2024-01-27T00:43:58;3.75;;;1.08;;
79135;SDS011;68533;51.090;17.216;2024-01-27T00:47:22;5.70;;;0.93;;
79135;SDS011;68533;51.090;17.216;2024-01-27T00:50:48;4.43;;;0.70;;
79135;SDS011;68533;51.090;17.216;2024-01-27T00:54:14;2.85;;;0.55;;
79135;SDS011;68533;51.090;17.216;2024-01-27T00:57:40;2.75;;;0.57;;
79135;SDS011;68533;51.090;17.216;2024-01-27T01:01:07;4.18;;;0.60;;
79135;SDS011;68533;51.090;17.216;2024-01-27T01:07:56;9.43;;;1.08;;
79135;SDS011;68533;51.090;17.216;2024-01-27T01:11:22;1.00;;;0.35;;
79135;SDS011;68533;51.090;17.216;2024-01-27T01:14:47;3.60;;;0.68;;
79135;SDS011;68533;51.090;17.216;2024-01-27T01:18:13;1.38;;;0.50;;
79135;SDS011;68533;51.090;17.216;2024-01-27T01:21:37;2.38;;;0.85;;
79135;SDS011;68533;51.090;17.216;2024-01-27T01:25:02;8.52;;;1.75;;
79135;SDS011;68533;51.090;17.216;2024-01-27T01:28:30;6.72;;;0.85;;
79135;SDS011;68533;51.090;17.216;2024-01-27T01:31:55;6.32;;;1.00;;
79135;SDS011;68533;51.090;17.216;2024-01-27T01:35:20;9.77;;;1.45;;
79135;SDS011;68533;51.090;17.216;2024-01-27T01:38:44;4.75;;;1.05;;
79135;SDS011;68533;51.090;17.216;2024-01-27T01:42:11;3.55;;;1.58;;
79135;SDS011;68533;51.090;17.216;2024-01-27T01:45:39;4.93;;;1.05;;
79135;SDS011;68533;51.090;17.216;2024-01-27T01:49:05;11.23;;;1.50;;
79135;SDS011;68533;51.090;17.216;2024-01-27T01:52:31;3.78;;;0.60;;
79135;SDS011;68533;51.090;17.216;2024-01-27T01:55:55;3.17;;;0.80;;
79135;SDS011;68533;51.090;17.216;2024-01-27T01:59:21;3.00;;;1.75;;
79135;SDS011;68533;51.090;17.216;2024-01-27T02:02:48;2.35;;;0.55;;
79135;SDS011;68533;51.090;17.216;2024-01-27T02:09:44;5.10;;;1.15;;
79135;SDS011;68533;51.090;17.216;2024-01-27T02:13:20;1.83;;;1.05;;
79135;SDS011;68533;51.090;17.216;2024-01-27T02:16:45;3.50;;;0.40;;
79135;SDS011;68533;51.090;17.216;2024-01-27T02:20:09;2.45;;;0.60;;
79135;SDS011;68533;51.090;17.216;2024-01-27T02:23:34;2.35;;;0.80;;
79135;SDS011;68533;51.090;17.216;2024-01-27T02:26:59;3.72;;;0.88;;
79135;SDS011;68533;51.090;17.216;2024-01-27T02:33:49;4.53;;;1.45;;
79135;SDS011;68533;51.090;17.216;2024-01-27T02:37:13;1.63;;;0.68;;
79135;SDS011;68533;51.090;17.216;2024-01-27T02:40:38;5.25;;;1.10;;
79135;SDS011;68533;51.090;17.216;2024-01-27T02:44:05;2.95;;;0.80;;
79135;SDS011;68533;51.090;17.216;2024-01-27T02:47:30;4.22;;;1.83;;
79135;SDS011;68533;51.090;17.216;2024-01-27T02:54:19;2.90;;;1.38;;
79135;SDS011;68533;51.090;17.216;2024-01-27T02:57:43;4.55;;;1.00;;
79135;SDS011;68533;51.090;17.216;2024-01-27T03:04:34;5.47;;;1.38;;
79135;SDS011;68533;51.090;17.216;2024-01-27T03:07:59;9.32;;;1.05;;
79135;SDS011;68533;51.090;17.216;2024-01-27T03:11:24;7.00;;;0.80;;
79135;SDS011;68533;51.090;17.216;2024-01-27T03:14:49;1.75;;;0.50;;
79135;SDS011;68533;51.090;17.216;2024-01-27T03:18:15;4.32;;;0.60;;
79135;SDS011;68533;51.090;17.216;2024-01-27T03:21:39;5.80;;;0.85;;
79135;SDS011;68533;51.090;17.216;2024-01-27T03:25:06;5.68;;;0.98;;
79135;SDS011;68533;51.090;17.216;2024-01-27T03:28:30;9.25;;;1.83;;
79135;SDS011;68533;51.090;17.216;2024-01-27T03:31:55;9.65;;;1.25;;
79135;SDS011;68533;51.090;17.216;2024-01-27T03:35:20;4.75;;;0.80;;
79135;SDS011;68533;51.090;17.216;2024-01-27T03:38:44;5.93;;;1.20;;
79135;SDS011;68533;51.090;17.216;2024-01-27T03:42:09;1.48;;;0.73;;
79135;SDS011;68533;51.090;17.216;2024-01-27T03:45:33;2.78;;;0.70;;
79135;SDS011;68533;51.090;17.216;2024-01-27T03:52:23;7.50;;;1.35;;
79135;SDS011;68533;51.090;17.216;2024-01-27T03:55:47;0.75;;;0.50;;
79135;SDS011;68533;51.090;17.216;2024-01-27T03:59:13;9.75;;;1.48;;
79135;SDS011;68533;51.090;17.216;2024-01-27T04:02:38;6.53;;;0.90;;
79135;SDS011;68533;51.090;17.216;2024-01-27T04:06:02;8.25;;;1.23;;
79135;SDS011;68533;51.090;17.216;2024-01-27T04:09:27;3.88;;;0.75;;
79135;SDS011;68533;51.090;17.216;2024-01-27T04:12:54;2.38;;;0.70;;
79135;SDS011;68533;51.090;17.216;2024-01-27T04:16:18;5.35;;;0.82;;
79135;SDS011;68533;51.090;17.216;2024-01-27T04:19:43;1.02;;;0.70;;
79135;SDS011;68533;51.090;17.216;2024-01-27T04:23:08;7.68;;;1.40;;
79135;SDS011;68533;51.090;17.216;2024-01-27T04:26:32;3.25;;;0.93;;
79135;SDS011;68533;51.090;17.216;2024-01-27T04:29:57;7.05;;;1.02;;
79135;SDS011;68533;51.090;17.216;2024-01-27T04:33:23;7.68;;;1.25;;
79135;SDS011;68533;51.090;17.216;2024-01-27T04:36:47;5.50;;;1.55;;
79135;SDS011;68533;51.090;17.216;2024-01-27T04:40:18;6.20;;;1.05;;
79135;SDS011;68533;51.090;17.216;2024-01-27T04:43:43;5.18;;;0.68;;
79135;SDS011;68533;51.090;17.216;2024-01-27T04:47:09;3.90;;;0.68;;
79135;SDS011;68533;51.090;17.216;2024-01-27T04:53:58;4.53;;;0.93;;
79135;SDS011;68533;51.090;17.216;2024-01-27T04:57:24;5.57;;;1.20;;
79135;SDS011;68533;51.090;17.216;2024-01-27T05:00:48;4.63;;;1.25;;
79135;SDS011;68533;51.090;17.216;2024-01-27T05:04:13;6.03;;;0.57;;
79135;SDS011;68533;51.090;17.216;2024-01-27T05:07:39;0.55;;;0.43;;
79135;SDS011;68533;51.090;17.216;2024-01-27T05:11:06;2.45;;;1.08;;
79135;SDS011;68533;51.090;17.216;2024-01-27T05:14:31;3.40;;;0.73;;
79135;SDS011;68533;51.090;17.216;2024-01-27T05:17:57;6.15;;;0.70;;
79135;SDS011;68533;51.090;17.216;2024-01-27T05:21:25;3.17;;;0.60;;
79135;SDS011;68533;51.090;17.216;2024-01-27T05:24:50;3.80;;;0.80;;
79135;SDS011;68533;51.090;17.216;2024-01-27T05:28:14;6.82;;;1.00;;
79135;SDS011;68533;51.090;17.216;2024-01-27T05:35:03;6.20;;;1.45;;
79135;SDS011;68533;51.090;17.216;2024-01-27T05:38:30;11.60;;;1.63;;
79135;SDS011;68533;51.090;17.216;2024-01-27T05:41:55;12.02;;;1.48;;
79135;SDS011;68533;51.090;17.216;2024-01-27T05:45:20;2.65;;;1.10;;
79135;SDS011;68533;51.090;17.216;2024-01-27T05:48:45;1.80;;;0.63;;
79135;SDS011;68533;51.090;17.216;2024-01-27T05:52:10;6.18;;;0.55;;
79135;SDS011;68533;51.090;17.216;2024-01-27T05:55:35;4.78;;;1.48;;
79135;SDS011;68533;51.090;17.216;2024-01-27T05:59:02;7.32;;;0.55;;
79135;SDS011;68533;51.090;17.216;2024-01-27T06:02:30;7.18;;;1.38;;
79135;SDS011;68533;51.090;17.216;2024-01-27T06:05:54;7.43;;;1.08;;
79135;SDS011;68533;51.090;17.216;2024-01-27T06:09:19;6.28;;;0.73;;
79135;SDS011;68533;51.090;17.216;2024-01-27T06:12:44;2.38;;;1.08;;
79135;SDS011;68533;51.090;17.216;2024-01-27T06:16:09;1.67;;;0.90;;
79135;SDS011;68533;51.090;17.216;2024-01-27T06:19:35;5.47;;;1.15;;
79135;SDS011;68533;51.090;17.216;2024-01-27T06:23:00;6.95;;;1.65;;
79135;SDS011;68533;51.090;17.216;2024-01-27T06:26:26;10.23;;;0.85;;
79135;SDS011;68533;51.090;17.216;2024-01-27T06:29:50;2.47;;;0.90;;
79135;SDS011;68533;51.090;17.216;2024-01-27T06:33:15;6.25;;;1.20;;
79135;SDS011;68533;51.090;17.216;2024-01-27T06:36:40;5.38;;;1.05;;
79135;SDS011;68533;51.090;17.216;2024-01-27T06:43:31;5.15;;;1.00;;
79135;SDS011;68533;51.090;17.216;2024-01-27T06:46:55;4.68;;;0.68;;
79135;SDS011;68533;51.090;17.216;2024-01-27T06:50:23;3.03;;;0.93;;
79135;SDS011;68533;51.090;17.216;2024-01-27T06:53:51;5.22;;;1.30;;
79135;SDS011;68533;51.090;17.216;2024-01-27T06:57:22;4.13;;;1.23;;
79135;SDS011;68533;51.090;17.216;2024-01-27T07:00:47;1.23;;;0.95;;
79135;SDS011;68533;51.090;17.216;2024-01-27T07:04:14;4.30;;;1.25;;
79135;SDS011;68533;51.090;17.216;2024-01-27T07:07:40;10.40;;;2.67;;
79135;SDS011;68533;51.090;17.216;2024-01-27T07:11:06;10.57;;;1.77;;
79135;SDS011;68533;51.090;17.216;2024-01-27T07:14:33;4.22;;;1.02;;
79135;SDS011;68533;51.090;17.216;2024-01-27T07:18:00;6.45;;;1.48;;
79135;SDS011;68533;51.090;17.216;2024-01-27T07:21:26;2.28;;;0.60;;
79135;SDS011;68533;51.090;17.216;2024-01-27T07:24:52;10.23;;;1.77;;
79135;SDS011;68533;51.090;17.216;2024-01-27T07:28:17;1.75;;;1.13;;
79135;SDS011;68533;51.090;17.216;2024-01-27T07:31:41;2.35;;;1.00;;
79135;SDS011;68533;51.090;17.216;2024-01-27T07:35:09;6.55;;;1.35;;
79135;SDS011;68533;51.090;17.216;2024-01-27T07:38:34;4.40;;;1.00;;
79135;SDS011;68533;51.090;17.216;2024-01-27T07:41:58;4.93;;;1.27;;
79135;SDS011;68533;51.090;17.216;2024-01-27T07:45:23;13.50;;;1.55;;
79135;SDS011;68533;51.090;17.216;2024-01-27T07:48:48;2.58;;;0.90;;
79135;SDS011;68533;51.090;17.216;2024-01-27T07:52:14;0.50;;;0.50;;
79135;SDS011;68533;51.090;17.216;2024-01-27T07:55:40;7.32;;;1.27;;
79135;SDS011;68533;51.090;17.216;2024-01-27T08:02:32;3.97;;;0.80;;
79135;SDS011;68533;51.090;17.216;2024-01-27T08:05:58;6.30;;;1.95;;
79135;SDS011;68533;51.090;17.216;2024-01-27T08:09:23;6.72;;;1.65;;
79135;SDS011;68533;51.090;17.216;2024-01-27T08:12:48;5.05;;;1.38;;
79135;SDS011;68533;51.090;17.216;2024-01-27T08:16:12;6.13;;;1.35;;
79135;SDS011;68533;51.090;17.216;2024-01-27T08:19:39;5.47;;;1.83;;
79135;SDS011;68533;51.090;17.216;2024-01-27T08:23:04;12.93;;;1.42;;
79135;SDS011;68533;51.090;17.216;2024-01-27T08:26:31;9.48;;;1.42;;
79135;SDS011;68533;51.090;17.216;2024-01-27T08:29:56;10.65;;;0.73;;
79135;SDS011;68533;51.090;17.216;2024-01-27T08:33:22;3.95;;;1.23;;
79135;SDS011;68533;51.090;17.216;2024-01-27T08:36:46;8.32;;;1.33;;
79135;SDS011;68533;51.090;17.216;2024-01-27T08:43:35;3.13;;;0.50;;
79135;SDS011;68533;51.090;17.216;2024-01-27T08:47:03;8.38;;;1.27;;
79135;SDS011;68533;51.090;17.216;2024-01-27T08:50:33;6.05;;;1.50;;
79135;SDS011;68533;51.090;17.216;2024-01-27T08:53:58;12.30;;;1.25;;
79135;SDS011;68533;51.090;17.216;2024-01-27T09:00:48;3.05;;;1.25;;
79135;SDS011;68533;51.090;17.216;2024-01-27T09:04:13;4.18;;;0.93;;
79135;SDS011;68533;51.090;17.216;2024-01-27T09:07:38;1.33;;;0.68;;
79135;SDS011;68533;51.090;17.216;2024-01-27T09:11:05;3.90;;;1.05;;
79135;SDS011;68533;51.090;17.216;2024-01-27T09:14:29;6.93;;;0.85;;
79135;SDS011;68533;51.090;17.216;2024-01-27T09:17:54;3.55;;;0.90;;
79135;SDS011;68533;51.090;17.216;2024-01-27T09:21:19;6.55;;;1.30;;
79135;SDS011;68533;51.090;17.216;2024-01-27T09:24:44;4.30;;;1.15;;
79135;SDS011;68533;51.090;17.216;2024-01-27T09:28:08;14.43;;;2.17;;
79135;SDS011;68533;51.090;17.216;2024-01-27T09:31:34;5.25;;;1.52;;
79135;SDS011;68533;51.090;17.216;2024-01-27T09:34:59;5.15;;;1.17;;
79135;SDS011;68533;51.090;17.216;2024-01-27T09:38:24;7.13;;;1.05;;
79135;SDS011;68533;51.090;17.216;2024-01-27T09:41:48;5.07;;;1.02;;
79135;SDS011;68533;51.090;17.216;2024-01-27T09:45:24;1.83;;;0.50;;
79135;SDS011;68533;51.090;17.216;2024-01-27T09:48:48;6.28;;;2.00;;
79135;SDS011;68533;51.090;17.216;2024-01-27T09:52:15;6.78;;;1.55;;
79135;SDS011;68533;51.090;17.216;2024-01-27T09:55:39;7.18;;;1.08;;
79135;SDS011;68533;51.090;17.216;2024-01-27T09:59:05;7.15;;;0.82;;
79135;SDS011;68533;51.090;17.216;2024-01-27T10:02:32;7.20;;;0.75;;
79135;SDS011;68533;51.090;17.216;2024-01-27T10:05:58;5.30;;;1.42;;
79135;SDS011;68533;51.090;17.216;2024-01-27T10:09:24;8.57;;;2.53;;
79135;SDS011;68533;51.090;17.216;2024-01-27T10:12:50;6.10;;;1.17;;
79135;SDS011;68533;51.090;17.216;2024-01-27T10:16:24;8.48;;;1.42;;
79135;SDS011;68533;51.090;17.216;2024-01-27T10:20:01;4.18;;;1.23;;
79135;SDS011;68533;51.090;17.216;2024-01-27T10:23:26;4.43;;;1.55;;
79135;SDS011;68533;51.090;17.216;2024-01-27T10:30:21;6.95;;;1.23;;
79135;SDS011;68533;51.090;17.216;2024-01-27T10:33:51;10.40;;;2.40;;
79135;SDS011;68533;51.090;17.216;2024-01-27T10:37:36;4.00;;;0.90;;
79135;SDS011;68533;51.090;17.216;2024-01-27T10:41:10;7.32;;;1.10;;
79135;SDS011;68533;51.090;17.216;2024-01-27T10:44:35;7.07;;;1.08;;
79135;SDS011;68533;51.090;17.216;2024-01-27T10:48:07;5.88;;;0.65;;
79135;SDS011;68533;51.090;17.216;2024-01-27T10:51:33;6.05;;;1.27;;
79135;SDS011;68533;51.090;17.216;2024-01-27T10:58:24;7.35;;;1.30;;
79135;SDS011;68533;51.090;17.216;2024-01-27T11:01:52;9.63;;;1.00;;
79135;SDS011;68533;51.090;17.216;2024-01-27T11:05:22;7.93;;;1.33;;
79135;SDS011;68533;51.090;17.216;2024-01-27T11:08:51;4.75;;;1.27;;
79135;SDS011;68533;51.090;17.216;2024-01-27T11:12:17;8.27;;;1.50;;
79135;SDS011;68533;51.090;17.216;2024-01-27T11:15:55;3.15;;;0.70;;
79135;SDS011;68533;51.090;17.216;2024-01-27T11:19:21;7.82;;;1.23;;
79135;SDS011;68533;51.090;17.216;2024-01-27T11:22:49;5.78;;;1.33;;
79135;SDS011;68533;51.090;17.216;2024-01-27T11:26:17;8.00;;;1.52;;
79135;SDS011;68533;51.090;17.216;2024-01-27T11:29:54;8.55;;;1.45;;
79135;SDS011;68533;51.090;17.216;2024-01-27T11:33:19;10.18;;;1.75;;
79135;SDS011;68533;51.090;17.216;2024-01-27T11:36:46;5.28;;;1.42;;
79135;SDS011;68533;51.090;17.216;2024-01-27T11:40:10;8.60;;;1.60;;
79135;SDS011;68533;51.090;17.216;2024-01-27T11:43:37;4.63;;;1.25;;
79135;SDS011;68533;51.090;17.216;2024-01-27T11:47:02;9.80;;;1.98;;
79135;SDS011;68533;51.090;17.216;2024-01-27T11:50:27;7.18;;;1.67;;
79135;SDS011;68533;51.090;17.216;2024-01-27T11:57:34;5.43;;;1.40;;
79135;SDS011;68533;51.090;17.216;2024-01-27T12:01:02;4.22;;;1.20;;
79135;SDS011;68533;51.090;17.216;2024-01-27T12:04:28;17.83;;;1.67;;
79135;SDS011;68533;51.090;17.216;2024-01-27T12:07:53;11.13;;;1.67;;
79135;SDS011;68533;51.090;17.216;2024-01-27T12:11:25;3.08;;;0.93;;
79135;SDS011;68533;51.090;17.216;2024-01-27T12:14:53;4.63;;;1.25;;
79135;SDS011;68533;51.090;17.216;2024-01-27T12:18:18;6.22;;;1.52;;
79135;SDS011;68533;51.090;17.216;2024-01-27T12:21:47;4.88;;;1.58;;
79135;SDS011;68533;51.090;17.216;2024-01-27T12:25:12;2.95;;;1.00;;
79135;SDS011;68533;51.090;17.216;2024-01-27T12:28:40;9.25;;;1.80;;
79135;SDS011;68533;51.090;17.216;2024-01-27T12:32:07;6.47;;;1.42;;
79135;SDS011;68533;51.090;17.216;2024-01-27T12:39:06;4.75;;;0.98;;
79135;SDS011;68533;51.090;17.216;2024-01-27T12:42:58;5.05;;;1.80;;
79135;SDS011;68533;51.090;17.216;2024-01-27T12:46:23;9.18;;;1.58;;
79135;SDS011;68533;51.090;17.216;2024-01-27T12:49:49;5.35;;;0.80;;
79135;SDS011;68533;51.090;17.216;2024-01-27T12:53:13;2.50;;;0.95;;
79135;SDS011;68533;51.090;17.216;2024-01-27T12:56:38;3.85;;;1.52;;
79135;SDS011;68533;51.090;17.216;2024-01-27T13:00:03;4.78;;;1.45;;
79135;SDS011;68533;51.090;17.216;2024-01-27T13:03:29;3.80;;;1.52;;
79135;SDS011;68533;51.090;17.216;2024-01-27T13:06:54;7.55;;;1.60;;
79135;SDS011;68533;51.090;17.216;2024-01-27T13:10:20;5.45;;;0.85;;
79135;SDS011;68533;51.090;17.216;2024-01-27T13:13:47;5.22;;;1.40;;
79135;SDS011;68533;51.090;17.216;2024-01-27T13:17:12;8.65;;;1.65;;
79135;SDS011;68533;51.090;17.216;2024-01-27T13:20:38;5.03;;;1.38;;
79135;SDS011;68533;51.090;17.216;2024-01-27T13:24:03;21.40;;;2.40;;
79135;SDS011;68533;51.090;17.216;2024-01-27T13:27:31;6.40;;;1.60;;
79135;SDS011;68533;51.090;17.216;2024-01-27T13:34:23;7.13;;;2.65;;
79135;SDS011;68533;51.090;17.216;2024-01-27T13:37:48;5.10;;;1.17;;
79135;SDS011;68533;51.090;17.216;2024-01-27T13:41:13;4.10;;;1.17;;
79135;SDS011;68533;51.090;17.216;2024-01-27T13:44:38;7.88;;;1.05;;
79135;SDS011;68533;51.090;17.216;2024-01-27T13:48:02;5.30;;;1.27;;
79135;SDS011;68533;51.090;17.216;2024-01-27T13:51:27;5.85;;;0.68;;
79135;SDS011;68533;51.090;17.216;2024-01-27T13:54:52;2.63;;;0.68;;
79135;SDS011;68533;51.090;17.216;2024-01-27T13:58:17;3.72;;;1.17;;
79135;SDS011;68533;51.090;17.216;2024-01-27T14:01:42;6.45;;;0.90;;
79135;SDS011;68533;51.090;17.216;2024-01-27T14:05:07;4.93;;;0.70;;
79135;SDS011;68533;51.090;17.216;2024-01-27T14:08:38;3.97;;;1.23;;
79135;SDS011;68533;51.090;17.216;2024-01-27T14:12:04;5.28;;;0.80;;
79135;SDS011;68533;51.090;17.216;2024-01-27T14:15:32;3.30;;;0.95;;
79135;SDS011;68533;51.090;17.216;2024-01-27T14:18:57;3.08;;;0.98;;
79135;SDS011;68533;51.090;17.216;2024-01-27T14:25:47;3.47;;;0.75;;
79135;SDS011;68533;51.090;17.216;2024-01-27T14:32:36;4.13;;;0.80;;
79135;SDS011;68533;51.090;17.216;2024-01-27T14:36:01;3.97;;;1.33;;
79135;SDS011;68533;51.090;17.216;2024-01-27T14:39:28;6.05;;;1.20;;
79135;SDS011;68533;51.090;17.216;2024-01-27T14:42:52;6.55;;;1.17;;
79135;SDS011;68533;51.090;17.216;2024-01-27T14:46:19;4.82;;;1.30;;
79135;SDS011;68533;51.090;17.216;2024-01-27T14:49:44;5.50;;;1.45;;
79135;SDS011;68533;51.090;17.216;2024-01-27T14:56:33;5.05;;;0.95;;
79135;SDS011;68533;51.090;17.216;2024-01-27T14:59:59;6.60;;;1.30;;
79135;SDS011;68533;51.090;17.216;2024-01-27T15:03:24;5.15;;;1.00;;
79135;SDS011;68533;51.090;17.216;2024-01-27T15:06:53;2.22;;;1.20;;
79135;SDS011;68533;51.090;17.216;2024-01-27T15:10:19;3.47;;;1.15;;
79135;SDS011;68533;51.090;17.216;2024-01-27T15:13:44;4.82;;;1.38;;
79135;SDS011;68533;51.090;17.216;2024-01-27T15:17:09;2.95;;;0.68;;
79135;SDS011;68533;51.090;17.216;2024-01-27T15:20:34;8.35;;;1.90;;
79135;SDS011;68533;51.090;17.216;2024-01-27T15:24:01;2.58;;;1.00;;
79135;SDS011;68533;51.090;17.216;2024-01-27T15:30:50;5.60;;;1.20;;
79135;SDS011;68533;51.090;17.216;2024-01-27T15:34:15;7.80;;;2.25;;
79135;SDS011;68533;51.090;17.216;2024-01-27T15:37:40;3.13;;;1.35;;
79135;SDS011;68533;51.090;17.216;2024-01-27T15:41:05;6.35;;;1.52;;
79135;SDS011;68533;51.090;17.216;2024-01-27T15:44:30;5.38;;;2.22;;
79135;SDS011;68533;51.090;17.216;2024-01-27T15:51:20;12.70;;;1.20;;
79135;SDS011;68533;51.090;17.216;2024-01-27T15:54:45;4.80;;;1.30;;
79135;SDS011;68533;51.090;17.216;2024-01-27T15:58:12;2.60;;;0.85;;
79135;SDS011;68533;51.090;17.216;2024-01-27T16:01:36;4.07;;;1.42;;
79135;SDS011;68533;51.090;17.216;2024-01-27T16:05:01;5.15;;;1.20;;
79135;SDS011;68533;51.090;17.216;2024-01-27T16:11:50;6.93;;;2.25;;
79135;SDS011;68533;51.090;17.216;2024-01-27T16:18:40;12.15;;;2.70;;
79135;SDS011;68533;51.090;17.216;2024-01-27T16:22:04;6.20;;;1.77;;
79135;SDS011;68533;51.090;17.216;2024-01-27T16:25:32;5.07;;;1.83;;
79135;SDS011;68533;51.090;17.216;2024-01-27T16:28:57;3.35;;;1.85;;
79135;SDS011;68533;51.090;17.216;2024-01-27T16:32:22;9.52;;;2.95;;
79135;SDS011;68533;51.090;17.216;2024-01-27T16:35:46;4.22;;;2.47;;
79135;SDS011;68533;51.090;17.216;2024-01-27T16:39:12;5.60;;;1.77;;
79135;SDS011;68533;51.090;17.216;2024-01-27T16:42:37;8.25;;;2.05;;
79135;SDS011;68533;51.090;17.216;2024-01-27T16:46:01;6.53;;;1.67;;
79135;SDS011;68533;51.090;17.216;2024-01-27T16:49:26;10.48;;;2.38;;
79135;SDS011;68533;51.090;17.216;2024-01-27T16:52:51;10.60;;;2.40;;
79135;SDS011;68533;51.090;17.216;2024-01-27T16:56:15;10.52;;;1.77;;
79135;SDS011;68533;51.090;17.216;2024-01-27T16:59:40;11.02;;;2.28;;
79135;SDS011;68533;51.090;17.216;2024-01-27T17:03:06;6.32;;;1.75;;
79135;SDS011;68533;51.090;17.216;2024-01-27T17:06:32;9.95;;;2.45;;
79135;SDS011;68533;51.090;17.216;2024-01-27T17:09:59;9.77;;;2.35;;
79135;SDS011;68533;51.090;17.216;2024-01-27T17:13:24;6.35;;;1.85;;
79135;SDS011;68533;51.090;17.216;2024-01-27T17:16:49;9.68;;;1.98;;
79135;SDS011;68533;51.090;17.216;2024-01-27T17:20:13;6.15;;;2.20;;
79135;SDS011;68533;51.090;17.216;2024-01-27T17:23:38;9.10;;;1.85;;
79135;SDS011;68533;51.090;17.216;2024-01-27T17:27:02;5.68;;;2.03;;
79135;SDS011;68533;51.090;17.216;2024-01-27T17:33:52;4.07;;;1.30;;
79135;SDS011;68533;51.090;17.216;2024-01-27T17:37:16;16.95;;;2.90;;
79135;SDS011;68533;51.090;17.216;2024-01-27T17:40:41;6.22;;;2.53;;
79135;SDS011;68533;51.090;17.216;2024-01-27T17:44:06;8.35;;;2.22;;
79135;SDS011;68533;51.090;17.216;2024-01-27T17:47:33;12.18;;;2.67;;
79135;SDS011;68533;51.090;17.216;2024-01-27T17:50:58;6.60;;;1.90;;
79135;SDS011;68533;51.090;17.216;2024-01-27T17:54:22;10.45;;;3.67;;
79135;SDS011;68533;51.090;17.216;2024-01-27T17:57:48;8.38;;;2.58;;
79135;SDS011;68533;51.090;17.216;2024-01-27T18:01:12;11.73;;;2.42;;
79135;SDS011;68533;51.090;17.216;2024-01-27T18:04:37;6.80;;;2.25;;
79135;SDS011;68533;51.090;17.216;2024-01-27T18:08:02;9.38;;;2.95;;
79135;SDS011;68533;51.090;17.216;2024-01-27T18:11:26;6.20;;;2.20;;
79135;SDS011;68533;51.090;17.216;2024-01-27T18:14:51;8.63;;;2.72;;
79135;SDS011;68533;51.090;17.216;2024-01-27T18:18:16;6.20;;;2.30;;
79135;SDS011;68533;51.090;17.216;2024-01-27T18:21:42;7.72;;;1.83;;
79135;SDS011;68533;51.090;17.216;2024-01-27T18:25:09;7.85;;;2.33;;
79135;SDS011;68533;51.090;17.216;2024-01-27T18:28:34;11.48;;;3.15;;
79135;SDS011;68533;51.090;17.216;2024-01-27T18:32:00;7.68;;;2.17;;
79135;SDS011;68533;51.090;17.216;2024-01-27T18:35:24;7.82;;;2.58;;
79135;SDS011;68533;51.090;17.216;2024-01-27T18:38:49;11.18;;;2.88;;
79135;SDS011;68533;51.090;17.216;2024-01-27T18:42:15;9.27;;;2.40;;
79135;SDS011;68533;51.090;17.216;2024-01-27T18:49:04;5.22;;;1.60;;
79135;SDS011;68533;51.090;17.216;2024-01-27T18:52:33;8.85;;;3.08;;
79135;SDS011;68533;51.090;17.216;2024-01-27T18:56:01;6.82;;;2.17;;
79135;SDS011;68533;51.090;17.216;2024-01-27T18:59:27;9.13;;;2.83;;
79135;SDS011;68533;51.090;17.216;2024-01-27T19:02:53;8.45;;;1.98;;
79135;SDS011;68533;51.090;17.216;2024-01-27T19:06:17;9.90;;;2.53;;
79135;SDS011;68533;51.090;17.216;2024-01-27T19:09:42;14.65;;;2.92;;
79135;SDS011;68533;51.090;17.216;2024-01-27T19:13:13;7.28;;;1.85;;
79135;SDS011;68533;51.090;17.216;2024-01-27T19:16:41;16.00;;;3.38;;
79135;SDS011;68533;51.090;17.216;2024-01-27T19:20:06;9.45;;;2.08;;
79135;SDS011;68533;51.090;17.216;2024-01-27T19:23:31;8.35;;;2.17;;
79135;SDS011;68533;51.090;17.216;2024-01-27T19:26:57;11.20;;;2.67;;
79135;SDS011;68533;51.090;17.216;2024-01-27T19:30:21;12.05;;;3.55;;
79135;SDS011;68533;51.090;17.216;2024-01-27T19:33:46;13.38;;;2.40;;
79135;SDS011;68533;51.090;17.216;2024-01-27T19:37:10;9.18;;;2.55;;
79135;SDS011;68533;51.090;17.216;2024-01-27T19:40:35;9.45;;;2.75;;
79135;SDS011;68533;51.090;17.216;2024-01-27T19:44:00;10.93;;;2.25;;
79135;SDS011;68533;51.090;17.216;2024-01-27T19:47:25;6.45;;;2.65;;
79135;SDS011;68533;51.090;17.216;2024-01-27T19:50:51;8.63;;;2.40;;
79135;SDS011;68533;51.090;17.216;2024-01-27T19:54:17;11.65;;;2.83;;
79135;SDS011;68533;51.090;17.216;2024-01-27T19:57:43;8.65;;;2.28;;
79135;SDS011;68533;51.090;17.216;2024-01-27T20:01:08;10.48;;;2.22;;
79135;SDS011;68533;51.090;17.216;2024-01-27T20:04:35;6.15;;;2.08;;
79135;SDS011;68533;51.090;17.216;2024-01-27T20:11:24;7.80;;;2.33;;
79135;SDS011;68533;51.090;17.216;2024-01-27T20:14:49;8.55;;;2.15;;
79135;SDS011;68533;51.090;17.216;2024-01-27T20:18:14;8.52;;;2.15;;
79135;SDS011;68533;51.090;17.216;2024-01-27T20:21:39;6.13;;;2.35;;
79135;SDS011;68533;51.090;17.216;2024-01-27T20:25:04;8.05;;;1.95;;
79135;SDS011;68533;51.090;17.216;2024-01-27T20:28:28;7.22;;;2.30;;
79135;SDS011;68533;51.090;17.216;2024-01-27T20:31:53;5.28;;;1.77;;
79135;SDS011;68533;51.090;17.216;2024-01-27T20:35:23;11.02;;;2.70;;
79135;SDS011;68533;51.090;17.216;2024-01-27T20:38:48;6.05;;;1.80;;
79135;SDS011;68533;51.090;17.216;2024-01-27T20:42:16;8.52;;;2.15;;
79135;SDS011;68533;51.090;17.216;2024-01-27T20:45:41;8.57;;;1.92;;
79135;SDS011;68533;51.090;17.216;2024-01-27T20:52:31;7.10;;;2.42;;
79135;SDS011;68533;51.090;17.216;2024-01-27T20:55:56;8.13;;;1.85;;
79135;SDS011;68533;51.090;17.216;2024-01-27T20:59:21;5.22;;;1.70;;
79135;SDS011;68533;51.090;17.216;2024-01-27T21:02:47;8.00;;;2.22;;
79135;SDS011;68533;51.090;17.216;2024-01-27T21:06:12;15.23;;;3.20;;
79135;SDS011;68533;51.090;17.216;2024-01-27T21:09:38;4.10;;;1.48;;
79135;SDS011;68533;51.090;17.216;2024-01-27T21:13:03;2.55;;;1.35;;
79135;SDS011;68533;51.090;17.216;2024-01-27T21:16:30;9.40;;;3.10;;
79135;SDS011;68533;51.090;17.216;2024-01-27T21:19:55;10.65;;;2.40;;
79135;SDS011;68533;51.090;17.216;2024-01-27T21:23:21;6.95;;;2.60;;
79135;SDS011;68533;51.090;17.216;2024-01-27T21:26:45;15.88;;;3.15;;
79135;SDS011;68533;51.090;17.216;2024-01-27T21:30:11;4.38;;;1.92;;
79135;SDS011;68533;51.090;17.216;2024-01-27T21:37:00;7.38;;;2.17;;
79135;SDS011;68533;51.090;17.216;2024-01-27T21:40:25;6.32;;;2.30;;
79135;SDS011;68533;51.090;17.216;2024-01-27T21:43:51;6.38;;;2.05;;
79135;SDS011;68533;51.090;17.216;2024-01-27T21:47:17;7.40;;;1.88;;
79135;SDS011;68533;51.090;17.216;2024-01-27T21:50:42;7.70;;;2.03;;
79135;SDS011;68533;51.090;17.216;2024-01-27T21:54:12;9.38;;;2.00;;
79135;SDS011;68533;51.090;17.216;2024-01-27T21:57:37;9.48;;;2.13;;
79135;SDS011;68533;51.090;17.216;2024-01-27T22:01:02;10.55;;;1.85;;